Suipacha, Argentina
Current Conditions -  °F | °C
As of 9:00 PM on Saturday 25 Oct 2014 (Local Time) from SAEZ Reporting Station
Clear Clear  
Wind Chill: 25°   Ceiling: Unl
Heat Index: 26°   Visibility: 6mi
Dew Point: 17°   Wind: 7mph
Humidity: 61%   Direction: 70°ENE
Pressure: 29.88"   Gusts: NA
Location:  34.75°S, 59.68°W
Report Text: SAEZ 260000Z 07006KT CAVOK 25/17 Q1012
Loading
Personal Weather Stations






























Interactive Weather Map
Tropical Storm Tracking
New forecast layout! Learn more

10-Day Weather Forecast

Advertisements
Track Severe Weather on mobile